Time;durP1;ratioP1;P1;durP2;ratioP2;P2;SDS_P1;SDS_P2;PMS_P1;PMS_P2;Temp;Humidity;BMP_temperature;BMP_pressure;BME280_temperature;BME280_humidity;BME280_pressure;Samples;Min_cycle;Max_cycle;Signal;HPM_P1;HPM_P2
2022/05/21 00:01:34;;;;;;;2.85;1.50;;;;;;;9.63;70.20;96893.78;5114158;28;20019;-63
2022/05/21 00:03:59;;;;;;;2.35;1.70;;;;;;;9.56;70.04;96888.72;5114208;28;20485;-62
2022/05/21 00:06:25;;;;;;;3.70;1.77;;;;;;;9.54;70.09;96882.69;5114177;28;20028;-61
2022/05/21 00:08:51;;;;;;;1.80;1.70;;;;;;;9.56;69.82;96885.25;5114252;28;20043;-63
2022/05/21 00:11:17;;;;;;;3.58;1.40;;;;;;;9.52;69.93;96879.28;5114078;28;20074;-60
2022/05/21 00:13:44;;;;;;;2.15;1.95;;;;;;;9.48;70.26;96878.50;5113969;28;20023;-64
2022/05/21 00:16:10;;;;;;;2.88;1.83;;;;;;;9.46;70.80;96880.28;5113824;28;20058;-62
2022/05/21 00:18:35;;;;;;;1.85;1.75;;;;;;;9.48;70.36;96883.72;5113220;28;20111;-62
2022/05/21 00:21:01;;;;;;;3.90;2.08;;;;;;;9.50;70.36;96878.47;5113892;28;20028;-64
2022/05/21 00:23:31;;;;;;;2.55;1.77;;;;;;;9.49;69.92;96881.97;5113896;28;20027;-61
2022/05/21 00:26:03;;;;;;;2.50;1.90;;;;;;;9.45;69.70;96882.97;5113745;28;20111;-62
2022/05/21 00:28:29;;;;;;;2.08;1.88;;;;;;;9.41;70.64;96881.31;5113661;28;20075;-61
2022/05/21 00:30:56;;;;;;;7.28;1.90;;;;;;;9.34;70.66;96880.66;5113731;28;20028;-64
2022/05/21 00:33:22;;;;;;;4.10;2.20;;;;;;;9.39;70.43;96886.59;5113812;28;20107;-61
2022/05/21 00:35:48;;;;;;;3.03;1.73;;;;;;;9.33;70.25;96885.00;5113747;28;20489;-64
2022/05/21 00:38:15;;;;;;;1.73;1.63;;;;;;;9.33;70.53;96879.78;5113600;28;20031;-61
2022/05/21 00:40:41;;;;;;;2.63;1.75;;;;;;;9.32;70.23;96883.28;5113573;28;20062;-61
2022/05/21 00:43:44;;;;;;;3.30;1.92;;;;;;;9.24;70.55;96882.63;5113727;28;20020;-64
2022/05/21 00:46:41;;;;;;;2.38;1.75;;;;;;;9.17;70.30;96883.69;5113664;28;20027;-63
2022/05/21 00:49:39;;;;;;;2.42;1.80;;;;;;;9.16;70.89;96887.22;5111489;28;20119;-63
2022/05/21 00:52:10;;;;;;;3.80;1.73;;;;;;;9.14;71.09;96874.22;5090341;28;20036;-63
2022/05/21 00:54:48;;;;;;;2.75;2.05;;;;;;;9.16;71.34;96880.25;5113571;28;20522;-63
2022/05/21 00:57:20;;;;;;;3.75;1.50;;;;;;;9.13;70.87;96877.72;5113615;28;20026;-64
2022/05/21 00:59:49;;;;;;;3.95;1.73;;;;;;;9.09;70.56;96876.94;5113512;28;20023;-61
2022/05/21 01:02:22;;;;;;;2.25;1.95;;;;;;;9.12;70.96;96873.38;5113288;28;20092;-61
2022/05/21 01:04:49;;;;;;;2.40;1.98;;;;;;;9.10;70.72;96865.59;5113420;28;20406;-64
2022/05/21 01:07:15;;;;;;;1.80;1.70;;;;;;;9.04;71.36;96867.53;5113513;28;20024;-62
2022/05/21 01:09:46;;;;;;;3.00;1.60;;;;;;;9.05;71.21;96869.22;5113419;28;20027;-64
2022/05/21 01:12:12;;;;;;;5.13;1.83;;;;;;;9.01;70.84;96862.38;5113357;28;20056;-61
2022/05/21 01:14:39;;;;;;;4.05;1.70;;;;;;;9.02;71.00;96862.34;5113313;28;20058;-62
2022/05/21 01:17:07;;;;;;;4.13;1.85;;;;;;;9.02;71.00;96858.88;5113251;28;20024;-64
2022/05/21 01:19:53;;;;;;;4.13;2.08;;;;;;;9.01;71.24;96860.66;5113199;28;20043;-63
2022/05/21 01:22:18;;;;;;;2.22;1.88;;;;;;;9.00;71.66;96855.47;5113329;28;20111;-62
2022/05/21 01:24:44;;;;;;;2.47;1.95;;;;;;;8.93;71.24;96862.56;5113179;28;20103;-62
2022/05/21 01:27:09;;;;;;;3.97;1.90;;;;;;;8.91;71.30;96846.13;5113205;28;20095;-61
2022/05/21 01:29:35;;;;;;;2.63;2.00;;;;;;;8.87;71.66;96845.34;5114958;28;20052;-62
2022/05/21 01:32:01;;;;;;;2.85;1.90;;;;;;;8.84;72.19;96840.19;5117051;28;20012;-62
2022/05/21 01:34:27;;;;;;;4.28;1.50;;;;;;;8.75;71.71;96846.50;5117397;28;20080;-64
2022/05/21 01:36:53;;;;;;;2.58;1.83;;;;;;;8.67;72.19;96844.09;5117107;28;20110;-61
2022/05/21 01:39:19;;;;;;;2.72;1.77;;;;;;;8.65;72.31;96838.09;5116885;28;20055;-63
2022/05/21 01:41:46;;;;;;;2.00;1.80;;;;;;;8.65;71.96;96848.50;5117019;27;20078;-62
2022/05/21 01:46:56;;;;;;;1.70;1.60;;;;;;;8.62;72.07;96832.94;5117324;28;20545;-62
2022/05/21 01:49:22;;;;;;;4.55;1.60;;;;;;;8.57;72.52;96834.78;5116722;28;20028;-63
2022/05/21 01:51:47;;;;;;;4.43;1.80;;;;;;;8.63;72.22;96837.25;5116716;28;20023;-64
2022/05/21 01:54:13;;;;;;;4.25;2.13;;;;;;;8.63;72.43;96831.16;5116738;28;20072;-62
2022/05/21 01:56:38;;;;;;;2.15;1.90;;;;;;;8.65;72.53;96832.88;5116657;27;20476;-61
2022/05/21 01:59:04;;;;;;;3.47;1.92;;;;;;;8.64;71.93;96831.13;5116620;28;20028;-62
2022/05/21 02:01:30;;;;;;;2.15;1.60;;;;;;;8.63;71.50;96832.03;5116527;28;20027;-61
2022/05/21 02:03:56;;;;;;;2.53;1.90;;;;;;;8.65;71.20;96830.25;5116478;28;20019;-64
2022/05/21 02:06:21;;;;;;;3.47;1.83;;;;;;;8.60;71.73;96824.28;5116477;28;20461;-63
2022/05/21 02:08:47;;;;;;;2.00;1.60;;;;;;;8.63;71.37;96821.59;5116297;28;20028;-64
2022/05/21 02:11:12;;;;;;;1.90;1.60;;;;;;;8.59;71.97;96818.25;5116451;28;20035;-62
2022/05/21 02:13:38;;;;;;;4.55;1.80;;;;;;;8.61;72.22;96818.16;5116346;28;20016;-64
2022/05/21 02:16:04;;;;;;;2.00;1.80;;;;;;;8.60;72.33;96819.06;5116244;28;20084;-62
2022/05/21 02:18:31;;;;;;;4.50;2.10;;;;;;;8.61;72.53;96819.94;5116333;28;20030;-64
2022/05/21 02:20:56;;;;;;;1.75;1.65;;;;;;;8.55;71.68;96819.19;5116128;28;20084;-63
2022/05/21 02:23:23;;;;;;;3.15;1.67;;;;;;;8.50;71.44;96821.03;5116233;28;20028;-62
2022/05/21 02:25:50;;;;;;;1.83;1.73;;;;;;;8.46;72.28;96802.00;5116001;28;20473;-61
2022/05/21 02:28:16;;;;;;;2.38;2.15;;;;;;;8.42;72.70;96802.09;5115707;28;20059;-64
2022/05/21 02:30:42;;;;;;;4.22;2.20;;;;;;;8.41;72.46;96800.41;5115929;27;20016;-62
2022/05/21 02:33:08;;;;;;;3.65;1.60;;;;;;;8.39;72.62;96803.06;5115958;27;20028;-62
2022/05/21 02:35:34;;;;;;;2.45;1.95;;;;;;;8.33;73.03;96797.97;5115986;28;20031;-64
2022/05/21 02:40:45;;;;;;;2.58;1.85;;;;;;;8.29;72.63;96802.44;5115012;28;20043;-61
2022/05/21 02:43:10;;;;;;;2.58;1.70;;;;;;;8.26;72.78;96804.25;5115652;28;20023;-62
2022/05/21 02:45:36;;;;;;;1.98;1.70;;;;;;;8.25;72.94;96799.94;5115756;28;20020;-63
2022/05/21 02:48:02;;;;;;;3.13;2.00;;;;;;;8.27;73.41;96795.53;5115702;28;20019;-61
2022/05/21 02:50:32;;;;;;;2.20;1.80;;;;;;;8.29;72.96;96807.66;5115662;28;20031;-64
2022/05/21 02:52:59;;;;;;;10.25;2.10;;;;;;;8.19;73.61;96806.16;5115625;28;20084;-64
2022/05/21 02:55:24;;;;;;;1.80;1.70;;;;;;;8.18;73.22;96800.09;5115515;28;20023;-61
2022/05/21 02:57:50;;;;;;;2.38;1.85;;;;;;;8.14;73.68;96806.28;5115492;28;20018;-61
2022/05/21 03:00:23;;;;;;;2.28;2.00;;;;;;;8.15;73.46;96809.72;5115437;28;20026;-63
2022/05/21 03:02:49;;;;;;;3.00;2.17;;;;;;;8.08;74.46;96801.19;5115391;28;20028;-63
2022/05/21 03:05:15;;;;;;;3.08;1.85;;;;;;;8.03;74.87;96803.91;5115279;28;20118;-63
2022/05/21 03:07:45;;;;;;;4.80;2.10;;;;;;;8.06;74.66;96801.22;5115302;28;20028;-63
2022/05/21 03:10:22;;;;;;;8.43;1.88;;;;;;;8.11;74.88;96808.06;5115258;28;20085;-61
2022/05/21 03:12:58;;;;;;;2.15;1.80;;;;;;;8.15;74.74;96809.72;5115289;28;20117;-62
2022/05/21 03:15:29;;;;;;;2.30;2.10;;;;;;;8.12;74.59;96809.81;5115077;28;20084;-61
2022/05/21 03:17:55;;;;;;;3.55;1.90;;;;;;;8.16;75.00;96801.84;5115097;28;20023;-63
2022/05/21 03:20:22;;;;;;;2.42;2.10;;;;;;;8.21;74.51;96804.34;5115040;28;20073;-62
2022/05/21 03:22:48;;;;;;;3.30;2.10;;;;;;;8.19;74.40;96808.78;5113833;28;20413;-63
2022/05/21 03:25:15;;;;;;;2.38;2.00;;;;;;;8.22;74.23;96806.94;5115003;28;20346;-63
2022/05/21 03:27:41;;;;;;;2.55;1.98;;;;;;;8.28;74.89;96799.88;5114676;28;20081;-63
2022/05/21 03:30:10;;;;;;;3.20;2.15;;;;;;;8.34;74.35;96805.75;5114963;27;20051;-64
2022/05/21 03:32:35;;;;;;;1.63;1.52;;;;;;;8.40;74.74;96803.91;5114833;27;20073;-63
2022/05/21 03:35:01;;;;;;;2.70;2.00;;;;;;;8.45;75.15;96802.03;5114817;28;20024;-61
2022/05/21 03:37:27;;;;;;;7.22;1.92;;;;;;;8.54;75.03;96796.63;5114664;28;20023;-61
2022/05/21 03:39:52;;;;;;;2.15;1.90;;;;;;;8.67;74.58;96793.72;5114409;28;20477;-61
2022/05/21 03:42:19;;;;;;;4.72;1.92;;;;;;;8.93;74.44;96789.53;5114512;28;20027;-62
2022/05/21 03:44:46;;;;;;;1.50;1.40;;;;;;;9.38;72.91;96790.88;5114444;28;20052;-61
2022/05/21 03:47:12;;;;;;;7.45;1.80;;;;;;;9.91;71.75;96793.69;5114566;28;20020;-63
2022/05/21 03:49:38;;;;;;;3.65;1.85;;;;;;;10.55;70.00;96792.53;5114438;28;20088;-64
2022/05/21 03:52:06;;;;;;;2.15;1.45;;;;;;;11.23;67.88;96797.13;5114353;28;20020;-62
2022/05/21 03:54:33;;;;;;;2.00;1.38;;;;;;;11.89;65.11;96802.53;5114300;28;20027;-61
2022/05/21 03:56:59;;;;;;;2.90;1.30;;;;;;;12.46;62.69;96803.84;5114375;28;20023;-62
2022/05/21 03:59:25;;;;;;;1.75;1.35;;;;;;;12.98;61.55;96803.38;5114309;28;20478;-64
2022/05/21 04:01:51;;;;;;;1.80;1.42;;;;;;;13.51;59.89;96795.84;5114215;28;20053;-63
2022/05/21 04:04:18;;;;;;;4.05;1.27;;;;;;;14.06;58.94;96795.09;5114094;28;20023;-64
2022/05/21 04:06:44;;;;;;;2.05;1.50;;;;;;;14.61;57.74;96795.94;5112932;28;20038;-61
2022/05/21 04:09:10;;;;;;;2.35;1.45;;;;;;;15.08;56.52;96797.06;5114147;28;20024;-61
2022/05/21 04:11:36;;;;;;;2.38;1.50;;;;;;;15.53;54.09;96788.59;5114184;28;20030;-61
2022/05/21 04:14:03;;;;;;;1.98;1.88;;;;;;;15.94;53.68;96792.53;5113975;28;20019;-61
2022/05/21 04:16:29;;;;;;;1.77;1.63;;;;;;;16.34;53.49;96786.81;5114016;28;20062;-61
2022/05/21 04:31:39;;;;;;;1.50;1.30;;;;;;;18.72;47.36;96790.84;5173068;27;20379;-62
2022/05/21 04:34:05;;;;;;;1.60;1.50;;;;;;;18.80;47.42;96785.84;5152135;27;20564;-60
2022/05/21 04:36:32;;;;;;;2.42;1.45;;;;;;;18.87;47.81;96789.78;5152030;27;20015;-61
2022/05/21 04:38:58;;;;;;;3.53;1.30;;;;;;;19.04;47.72;96788.66;5151792;27;20352;-60
2022/05/21 04:41:27;;;;;;;5.10;1.33;;;;;;;19.14;46.67;96783.56;5151860;27;20023;-63
2022/05/21 04:43:53;;;;;;;1.63;1.40;;;;;;;19.24;46.14;96777.66;5152076;27;20023;-62
2022/05/21 04:46:21;;;;;;;2.28;1.40;;;;;;;19.47;45.67;96773.38;5151851;27;20031;-60
2022/05/21 04:48:47;;;;;;;2.90;1.40;;;;;;;19.72;46.55;96779.59;5151751;27;20510;-61
2022/05/21 04:51:13;;;;;;;1.85;1.45;;;;;;;20.04;44.63;96783.53;5151591;27;20030;-61
2022/05/21 04:53:40;;;;;;;3.50;1.83;;;;;;;20.26;44.84;96780.16;5151773;27;20015;-59
2022/05/21 04:56:06;;;;;;;3.67;1.35;;;;;;;20.45;45.23;96779.66;5151590;27;20479;-61
2022/05/21 04:58:33;;;;;;;2.10;1.65;;;;;;;20.68;46.95;96787.69;5151760;27;20476;-62
2022/05/21 05:01:01;;;;;;;4.72;1.33;;;;;;;20.93;47.50;96788.53;5151535;27;20038;-62
2022/05/21 05:03:27;;;;;;;1.52;1.40;;;;;;;21.15;45.99;96784.22;5151414;27;20064;-62
2022/05/21 05:05:53;;;;;;;2.75;1.45;;;;;;;21.28;45.65;96777.97;5151637;27;20023;-60
2022/05/21 05:08:22;;;;;;;2.10;1.33;;;;;;;21.49;46.01;96778.06;5150241;27;20034;-61
2022/05/21 05:10:48;;;;;;;1.80;1.33;;;;;;;21.79;45.68;96765.97;5151594;27;20027;-61
2022/05/21 05:13:16;;;;;;;3.85;1.70;;;;;;;22.06;46.68;96756.72;5151290;27;20075;-62
2022/05/21 05:15:46;;;;;;;1.98;1.10;;;;;;;22.25;45.16;96765.03;5151271;27;20383;-61
2022/05/21 05:18:23;;;;;;;4.40;1.65;;;;;;;22.13;44.15;96769.53;5151364;27;20475;-60
2022/05/21 05:20:50;;;;;;;3.72;1.67;;;;;;;22.43;43.44;96763.47;5151039;27;20373;-61
2022/05/21 05:23:16;;;;;;;2.08;1.17;;;;;;;22.68;43.17;96776.63;5151272;27;20475;-59
2022/05/21 05:25:42;;;;;;;1.85;1.30;;;;;;;22.89;42.59;96776.63;5151076;27;20035;-60
2022/05/21 05:28:19;;;;;;;4.60;1.80;;;;;;;23.02;42.55;96772.94;5151058;27;20042;-61
2022/05/21 05:30:46;;;;;;;1.92;1.45;;;;;;;23.20;43.38;96768.66;5147779;27;20118;-61
2022/05/21 05:33:13;;;;;;;5.18;1.60;;;;;;;23.34;41.83;96775.50;5137077;27;20084;-60
2022/05/21 05:35:39;;;;;;;1.73;1.48;;;;;;;23.37;40.89;96777.06;5137083;27;20019;-61
2022/05/21 05:38:07;;;;;;;1.83;1.50;;;;;;;23.69;40.00;96772.56;5136989;27;20460;-60
2022/05/21 05:40:34;;;;;;;3.05;1.55;;;;;;;23.93;38.94;96776.72;5136794;27;20384;-60
2022/05/21 05:43:01;;;;;;;2.30;1.55;;;;;;;24.06;38.51;96773.78;5136885;27;20072;-59
2022/05/21 05:45:27;;;;;;;2.45;1.60;;;;;;;24.17;39.32;96779.00;5136935;27;20023;-60
2022/05/21 05:47:53;;;;;;;1.83;1.50;;;;;;;24.37;39.08;96779.03;5136846;27;20476;-60
2022/05/21 05:50:20;;;;;;;2.30;1.95;;;;;;;24.65;39.29;96773.00;5136618;27;20122;-61
2022/05/21 05:52:46;;;;;;;3.25;1.70;;;;;;;24.71;40.05;96777.78;5136645;27;20472;-60
2022/05/21 05:55:12;;;;;;;4.50;1.70;;;;;;;24.77;37.58;96773.69;5136703;27;20023;-61
2022/05/21 05:57:38;;;;;;;6.03;1.50;;;;;;;24.92;37.59;96769.59;5136665;27;20060;-60
2022/05/21 06:00:09;;;;;;;1.50;1.40;;;;;;;25.07;37.54;96770.00;5136664;27;20061;-61
2022/05/21 06:05:22;;;;;;;2.47;1.60;;;;;;;25.33;37.42;96769.38;5135882;27;19968;-61
2022/05/21 06:07:51;;;;;;;3.10;1.63;;;;;;;25.54;36.45;96770.13;5136458;27;20027;-61
2022/05/21 06:10:21;;;;;;;2.30;1.60;;;;;;;25.85;35.95;96768.03;5136578;27;20019;-62
2022/05/21 06:12:48;;;;;;;2.15;1.60;;;;;;;25.87;34.94;96767.91;5136478;27;20027;-60
2022/05/21 06:15:14;;;;;;;1.75;1.30;;;;;;;26.06;35.36;96768.75;5136254;27;20118;-60
2022/05/21 06:17:41;;;;;;;2.05;1.50;;;;;;;26.30;34.75;96772.72;5134974;27;20482;-61
2022/05/21 06:20:11;;;;;;;2.83;1.20;;;;;;;26.37;34.72;96771.97;5136190;27;20027;-60
2022/05/21 06:22:37;;;;;;;3.00;1.60;;;;;;;26.57;34.08;96766.44;5136269;27;20098;-61
2022/05/21 06:25:04;;;;;;;5.72;2.00;;;;;;;26.66;35.33;96771.91;5136196;27;20031;-60
2022/05/21 06:27:30;;;;;;;3.92;1.52;;;;;;;26.61;34.39;96764.31;5136025;27;20042;-61
2022/05/21 06:29:56;;;;;;;1.60;1.50;;;;;;;26.76;35.68;96764.59;5134533;27;20043;-61
2022/05/21 06:32:22;;;;;;;8.68;1.50;;;;;;;26.96;33.87;96759.03;5136127;27;20383;-60
2022/05/21 06:34:48;;;;;;;1.80;1.33;;;;;;;27.29;32.92;96755.72;5136036;27;20024;-60
2022/05/21 06:37:14;;;;;;;2.65;1.40;;;;;;;27.38;33.45;96752.94;5135901;27;20042;-61
2022/05/21 06:39:42;;;;;;;2.85;1.73;;;;;;;27.70;33.00;96741.69;5135736;27;20031;-61
2022/05/21 06:42:09;;;;;;;3.38;1.55;;;;;;;28.04;32.77;96743.47;5135362;27;20023;-59
2022/05/21 06:44:34;;;;;;;4.60;1.98;;;;;;;28.16;31.88;96738.63;5134914;27;20023;-61
2022/05/21 06:47:01;;;;;;;1.60;1.17;;;;;;;28.31;32.62;96732.63;5135557;27;20088;-61
2022/05/21 06:49:27;;;;;;;5.15;1.40;;;;;;;28.35;33.00;96734.00;5135642;27;20027;-61
2022/05/21 06:51:54;;;;;;;1.52;1.20;;;;;;;28.37;32.79;96726.59;5135650;27;20094;-62
2022/05/21 06:54:21;;;;;;;2.63;1.48;;;;;;;28.47;31.52;96727.25;5135619;27;20452;-60
2022/05/21 06:56:47;;;;;;;3.03;1.45;;;;;;;28.64;31.88;96727.28;5135365;27;20023;-60
2022/05/21 06:59:13;;;;;;;2.63;1.50;;;;;;;28.93;30.83;96736.72;5135247;27;20031;-60
2022/05/21 07:01:41;;;;;;;1.90;1.50;;;;;;;29.11;29.52;96731.09;5135412;27;20476;-59
2022/05/21 07:04:06;;;;;;;5.95;1.50;;;;;;;28.88;28.44;96733.63;5135329;27;20361;-62
2022/05/21 07:09:18;;;;;;;4.38;1.15;;;;;;;28.86;29.91;96733.81;5135605;27;20042;-60
2022/05/21 07:11:44;;;;;;;5.95;1.50;;;;;;;28.99;28.89;96735.19;5135006;27;20028;-62
2022/05/21 07:14:10;;;;;;;2.55;1.23;;;;;;;29.09;29.76;96730.44;5135209;27;20080;-62
2022/05/21 07:16:35;;;;;;;2.17;1.05;;;;;;;29.22;30.51;96724.53;5135057;27;20023;-62
2022/05/21 07:19:01;;;;;;;1.45;1.25;;;;;;;29.26;29.52;96722.34;5134931;27;20023;-62
2022/05/21 07:21:28;;;;;;;2.72;1.30;;;;;;;29.34;29.90;96718.75;5135066;27;20019;-62
2022/05/21 07:23:54;;;;;;;2.45;1.42;;;;;;;29.22;30.34;96719.13;5135062;27;20063;-60
2022/05/21 07:26:20;;;;;;;1.77;1.38;;;;;;;29.12;29.59;96710.41;5134887;27;20043;-60
2022/05/21 07:28:45;;;;;;;7.70;1.92;;;;;;;28.94;31.25;96705.22;5134837;27;20019;-60
2022/05/21 07:31:11;;;;;;;3.85;1.23;;;;;;;28.97;29.99;96697.66;5134613;27;20039;-63
2022/05/21 07:33:37;;;;;;;1.80;1.42;;;;;;;29.21;31.22;96685.16;5134801;27;20016;-61
2022/05/21 07:36:03;;;;;;;5.63;1.58;;;;;;;29.29;31.35;96680.75;5134691;27;20488;-61
2022/05/21 07:38:29;;;;;;;2.75;1.50;;;;;;;29.29;30.56;96672.66;5134736;27;20019;-61
2022/05/21 07:40:54;;;;;;;1.88;1.10;;;;;;;29.18;29.72;96676.56;5134535;27;20031;-60
2022/05/21 07:43:24;;;;;;;7.10;1.63;;;;;;;29.30;30.37;96675.19;5134458;27;20026;-60
2022/05/21 07:45:51;;;;;;;7.70;1.50;;;;;;;29.27;30.49;96680.91;5134562;27;20392;-60
2022/05/21 07:48:18;;;;;;;2.53;1.60;;;;;;;29.40;31.54;96677.66;5134467;27;20106;-64
2022/05/21 07:50:51;;;;;;;3.05;1.30;;;;;;;29.45;29.38;96686.06;5134379;27;20031;-60
2022/05/21 07:53:20;;;;;;;7.07;1.55;;;;;;;29.51;30.87;96684.53;5134548;27;20031;-63
2022/05/21 07:55:50;;;;;;;2.50;1.43;;;;;;;29.44;28.55;96684.41;5134076;27;20023;-60
2022/05/21 07:58:17;;;;;;;2.63;1.52;;;;;;;29.34;28.34;96681.91;5134387;27;20049;-61
2022/05/21 08:00:43;;;;;;;3.58;1.77;;;;;;;29.37;29.55;96684.25;5134199;27;20035;-63
2022/05/21 08:03:09;;;;;;;2.13;1.40;;;;;;;29.35;30.02;96680.88;5134444;27;20019;-62
2022/05/21 08:05:36;;;;;;;5.53;1.40;;;;;;;29.41;30.35;96673.13;5134288;27;20434;-60
2022/05/21 08:08:03;;;;;;;4.70;1.88;;;;;;;29.17;30.35;96683.81;5134315;27;20019;-62
2022/05/21 08:10:28;;;;;;;5.80;1.65;;;;;;;29.28;30.12;96671.00;5134193;27;20023;-62
2022/05/21 08:12:54;;;;;;;5.28;1.60;;;;;;;29.49;28.69;96656.91;5134336;27;20143;-61
2022/05/21 08:15:21;;;;;;;7.70;2.03;;;;;;;29.37;29.90;96664.53;5134179;27;20026;-62
2022/05/21 08:17:47;;;;;;;4.72;1.50;;;;;;;29.12;29.36;96661.94;5134102;27;20019;-61
2022/05/21 08:20:15;;;;;;;5.53;1.70;;;;;;;29.00;30.04;96665.03;5133900;27;20023;-60
2022/05/21 08:28:15;;;;;;;2.92;1.35;;;;;;;28.93;30.51;96657.78;5134458;28;20122;-60
2022/05/21 08:30:44;;;;;;;1.67;1.38;;;;;;;28.81;31.17;96654.59;5133812;27;20047;-63
2022/05/21 08:33:11;;;;;;;4.82;1.40;;;;;;;29.00;31.26;96645.34;5134015;27;20019;-60
2022/05/21 08:35:39;;;;;;;2.38;1.13;;;;;;;29.26;31.58;96645.06;5133889;27;20027;-61
2022/05/21 08:38:09;;;;;;;8.23;1.30;;;;;;;29.16;31.05;96635.53;5133891;27;20585;-62
2022/05/21 08:40:43;;;;;;;;;;;;;;;28.91;31.11;96638.25;5134321;27;20023;-62
2022/05/21 08:43:44;;;;;;;3.33;1.38;;;;;;;29.10;32.42;96629.81;5133984;27;19918;-64
2022/05/21 08:46:36;;;;;;;4.78;1.30;;;;;;;29.20;32.00;96642.25;5133971;27;20034;-61
2022/05/21 08:49:33;;;;;;;3.17;1.40;;;;;;;29.35;31.00;96636.97;5133944;27;20031;-63
2022/05/21 08:52:02;;;;;;;4.32;1.35;;;;;;;29.24;28.09;96630.94;5133872;27;20031;-62
2022/05/21 08:54:34;;;;;;;1.50;1.33;;;;;;;29.48;30.98;96631.00;5133863;27;20012;-59
2022/05/21 08:57:02;;;;;;;3.85;1.40;;;;;;;29.50;30.09;96637.88;5133750;27;20032;-61
2022/05/21 08:59:38;;;;;;;6.85;1.40;;;;;;;29.38;29.40;96623.16;5133621;27;20418;-63
2022/05/21 09:02:10;;;;;;;1.60;1.42;;;;;;;29.34;31.25;96627.19;5133793;27;20035;-62
2022/05/21 09:04:35;;;;;;;1.50;1.20;;;;;;;29.51;29.43;96609.94;5133854;27;20023;-63
2022/05/21 09:07:21;;;;;;;6.78;1.40;;;;;;;29.42;28.81;96612.84;5135710;27;20472;-60
2022/05/21 09:10:08;;;;;;;2.38;1.40;;;;;;;29.50;28.96;96610.94;5137642;27;20042;-60
2022/05/21 09:12:43;;;;;;;4.88;1.38;;;;;;;29.38;32.02;96604.28;5137521;27;20030;-60
2022/05/21 09:16:54;;;;;;;4.03;1.10;;;;;;;29.35;28.76;96607.34;5137702;27;20033;-61
2022/05/21 09:18:03;;;;;;;2.17;1.67;;;;;;;29.30;30.17;96610.56;5137401;27;20023;-60
2022/05/21 09:20:35;;;;;;;0.82;0.82;;;;;;;29.29;31.15;96602.66;5137199;27;20059;-60
2022/05/21 09:23:02;;;;;;;1.52;1.20;;;;;;;29.25;30.36;96604.84;5137264;27;20023;-62
2022/05/21 09:25:29;;;;;;;4.47;1.50;;;;;;;29.36;30.11;96595.53;5137147;27;20107;-62
2022/05/21 09:28:10;;;;;;;4.72;1.00;;;;;;;29.45;29.42;96604.41;5135825;27;20061;-62
2022/05/21 09:30:41;;;;;;;3.28;1.10;;;;;;;29.56;29.33;96590.59;5137097;27;20485;-61
2022/05/21 09:33:32;;;;;;;7.45;1.70;;;;;;;29.65;29.21;96586.00;5137116;27;20019;-62
2022/05/21 09:35:59;;;;;;;2.38;1.20;;;;;;;29.57;30.63;96589.56;5136986;27;20026;-62
2022/05/21 09:38:31;;;;;;;1.80;1.20;;;;;;;29.32;32.01;96589.69;5137005;27;20151;-61
2022/05/21 09:41:26;;;;;;;3.40;1.60;;;;;;;29.31;29.30;96582.59;5136865;27;20023;-60
2022/05/21 09:47:15;;;;;;;4.95;1.55;;;;;;;28.91;30.02;96579.03;5137112;27;20507;-62
2022/05/21 09:49:42;;;;;;;1.83;1.20;;;;;;;28.87;31.39;96575.88;5136897;27;20076;-60
2022/05/21 09:52:22;;;;;;;3.05;1.20;;;;;;;28.72;30.66;96581.97;5136800;27;20028;-61
2022/05/21 09:54:47;;;;;;;3.27;1.10;;;;;;;28.44;29.32;96577.00;5136655;27;20020;-62
2022/05/21 09:57:45;;;;;;;2.13;1.23;;;;;;;28.08;30.42;96567.44;5136561;27;20030;-60
2022/05/21 10:00:34;;;;;;;2.88;1.02;;;;;;;28.07;32.73;96565.75;5091001;27;20031;-61
2022/05/21 10:03:02;;;;;;;1.80;1.15;;;;;;;28.08;32.50;96570.13;5136565;27;20031;-61
2022/05/21 10:05:35;;;;;;;2.42;1.10;;;;;;;28.33;33.25;96571.97;5136527;27;20368;-59
2022/05/21 10:10:58;;;;;;;1.85;1.27;;;;;;;28.76;31.70;96564.47;5136692;27;20143;-60
2022/05/21 10:13:26;;;;;;;3.47;1.40;;;;;;;28.86;30.13;96553.50;5136264;27;20027;-62
2022/05/21 10:16:19;;;;;;;3.53;1.42;;;;;;;28.85;30.44;96559.91;5136170;27;20027;-62
2022/05/21 10:19:03;;;;;;;4.78;1.40;;;;;;;28.85;30.52;96561.75;5136259;27;20023;-60
2022/05/21 10:22:01;;;;;;;1.20;1.10;;;;;;;28.84;27.27;96550.13;5134993;27;20031;-62
2022/05/21 10:24:29;;;;;;;2.03;1.10;;;;;;;28.95;31.12;96538.19;5111809;27;20110;-61
2022/05/21 10:27:03;;;;;;;4.20;1.50;;;;;;;28.76;27.69;96544.81;5136060;27;20023;-60
2022/05/21 10:29:29;;;;;;;5.53;1.20;;;;;;;28.70;30.21;96549.03;5135776;27;20380;-61
2022/05/21 10:32:26;;;;;;;3.00;0.90;;;;;;;29.02;30.57;96546.41;5136087;27;20035;-60
2022/05/21 10:35:17;;;;;;;2.25;1.20;;;;;;;29.11;29.11;96536.44;5135751;27;20035;-61
2022/05/21 10:38:06;;;;;;;4.72;1.23;;;;;;;29.37;28.39;96543.34;5136041;27;20028;-61
2022/05/21 10:40:53;;;;;;;3.38;1.40;;;;;;;29.29;28.17;96536.19;5135644;27;20503;-63
2022/05/21 10:43:57;;;;;;;2.17;1.08;;;;;;;29.44;31.01;96532.72;5135894;27;20057;-61
2022/05/21 10:46:41;;;;;;;4.28;1.10;;;;;;;29.46;29.45;96536.91;5135683;27;20494;-62
2022/05/21 10:49:26;;;;;;;1.50;1.10;;;;;;;29.46;28.48;96523.44;5135585;27;20604;-62
2022/05/21 10:52:22;;;;;;;1.27;1.00;;;;;;;29.61;27.19;96531.59;5135517;27;20055;-60
2022/05/21 10:55:17;;;;;;;1.35;1.00;;;;;;;29.44;29.10;96513.88;5134862;27;20114;-61
2022/05/21 10:57:43;;;;;;;1.30;1.10;;;;;;;29.43;25.80;96512.19;5118145;27;20031;-61
2022/05/21 11:00:10;;;;;;;2.45;1.20;;;;;;;29.47;28.62;96513.50;5135435;27;20036;-62
2022/05/21 11:03:07;;;;;;;1.42;1.00;;;;;;;29.68;31.50;96504.81;5135294;27;20015;-62
2022/05/21 11:05:57;;;;;;;3.33;1.42;;;;;;;29.77;31.22;96508.25;5135207;27;20075;-61
2022/05/21 11:08:30;;;;;;;;;;;;;;;29.66;30.63;96512.22;5135730;27;20039;-61
2022/05/21 11:11:09;;;;;;;1.88;1.27;;;;;;;29.45;29.67;96511.00;5135245;27;20413;-62
2022/05/21 11:13:59;;;;;;;2.55;1.10;;;;;;;29.54;30.28;96508.22;5133812;27;20099;-60
2022/05/21 11:16:35;;;;;;;3.40;1.13;;;;;;;29.69;31.66;96494.84;5135012;27;20079;-63
2022/05/21 11:19:13;;;;;;;2.03;1.15;;;;;;;29.64;30.20;96501.63;5135045;27;20023;-62
2022/05/21 11:21:47;;;;;;;1.85;1.05;;;;;;;29.56;30.30;96506.25;5134955;27;20476;-61
2022/05/21 11:24:35;;;;;;;5.25;1.30;;;;;;;29.54;28.78;96501.00;5134899;27;20072;-60
2022/05/21 11:27:08;;;;;;;3.20;1.35;;;;;;;29.59;28.32;96501.31;5126246;27;20065;-60
2022/05/21 11:30:15;;;;;;;3.10;1.27;;;;;;;29.54;28.29;96497.44;5133981;27;20102;-63
2022/05/21 11:38:25;;;;;;;3.78;1.40;;;;;;;29.64;31.51;96485.44;5092203;28;20065;-62
2022/05/21 11:41:47;;;;;;;;;;;;;;;29.49;28.68;96489.91;5092100;28;20366;-62
2022/05/21 11:43:56;;;;;;;3.70;0.98;;;;;;;29.42;30.76;96484.41;5077756;28;19912;-60
2022/05/21 11:46:34;;;;;;;6.43;1.30;;;;;;;29.50;30.89;96478.94;5091720;28;20032;-62
2022/05/21 11:49:38;;;;;;;2.53;1.33;;;;;;;29.35;28.08;96467.31;5091494;28;20035;-63
2022/05/21 11:52:25;;;;;;;6.18;1.30;;;;;;;29.08;28.73;96472.19;5091454;28;20048;-62
2022/05/21 11:54:51;;;;;;;1.55;1.00;;;;;;;28.94;29.51;96471.94;5091494;28;20034;-62
2022/05/21 11:57:40;;;;;;;2.85;0.98;;;;;;;28.97;31.34;96471.59;5091403;28;20032;-62
2022/05/21 12:00:15;;;;;;;1.50;1.25;;;;;;;29.01;29.47;96456.75;5091457;28;20036;-61
2022/05/21 12:02:58;;;;;;;2.50;1.10;;;;;;;28.90;28.33;96454.44;5097808;27;20472;-62
2022/05/21 12:08:34;;;;;;;4.00;1.20;;;;;;;28.66;29.64;96448.16;5124841;27;20035;-63
2022/05/21 12:11:36;;;;;;;5.35;1.02;;;;;;;28.54;29.88;96439.66;5134289;27;20168;-62
2022/05/21 12:14:06;;;;;;;3.13;1.00;;;;;;;28.43;31.19;96430.09;5133984;27;20035;-62
2022/05/21 12:16:33;;;;;;;;;;;;;;;28.49;31.59;96418.66;5134753;27;20023;-61
2022/05/21 12:19:06;;;;;;;2.88;1.00;;;;;;;28.47;29.82;96419.84;5134018;27;20265;-63
2022/05/21 12:21:36;;;;;;;2.78;1.17;;;;;;;28.35;30.09;96422.09;5134096;27;20030;-63
2022/05/21 12:24:30;;;;;;;4.85;1.30;;;;;;;28.54;30.83;96414.59;5134106;27;20388;-61
2022/05/21 12:27:22;;;;;;;1.77;1.08;;;;;;;28.59;30.80;96410.34;5133914;28;20468;-61
2022/05/21 12:29:56;;;;;;;2.38;0.93;;;;;;;28.74;30.09;96404.22;5133678;27;20086;-62
2022/05/21 12:32:27;;;;;;;3.47;1.20;;;;;;;28.80;27.62;96406.22;5134022;27;20020;-60
2022/05/21 12:35:25;;;;;;;0.98;0.90;;;;;;;28.85;28.67;96401.16;5134116;27;20034;-60
2022/05/21 12:37:57;;;;;;;1.25;1.02;;;;;;;28.76;28.23;96392.28;5117979;28;20066;-60
2022/05/21 12:40:37;;;;;;;5.50;1.10;;;;;;;28.75;28.18;96384.41;5133981;27;20031;-60